createdAt,value
2019-04-29T00:01:35.726Z,52.82
2019-04-29T00:04:04.415Z,52.39
2019-04-29T00:06:33.160Z,53.92
2019-04-29T00:09:01.855Z,54.97
2019-04-29T00:11:30.550Z,54.81
2019-04-29T00:13:59.377Z,53.88
2019-04-29T00:16:32.711Z,54.56
2019-04-29T00:19:19.193Z,55.01
2019-04-29T00:21:48.390Z,54.85
2019-04-29T00:24:17.081Z,54.75
2019-04-29T00:26:45.827Z,54.48
2019-04-29T00:29:14.518Z,54.55
2019-04-29T00:31:43.216Z,54.74
2019-04-29T00:34:11.876Z,54.57
2019-04-29T00:36:50.910Z,53.70
2019-04-29T00:39:37.175Z,52.95
2019-04-29T00:42:22.515Z,52.13
2019-04-29T00:44:51.242Z,52.34
2019-04-29T00:47:19.950Z,52.76
2019-04-29T00:49:48.626Z,51.94
2019-04-29T00:52:17.481Z,52.54
2019-04-29T00:55:03.835Z,51.76
2019-04-29T00:57:32.564Z,51.86
2019-04-29T01:00:01.262Z,53.16
2019-04-29T01:02:29.951Z,52.00
2019-04-29T01:04:58.732Z,51.76
2019-04-29T01:07:27.593Z,51.44
2019-04-29T01:09:56.291Z,52.12
2019-04-29T01:12:25.023Z,53.47
2019-04-29T01:14:53.711Z,52.28
2019-04-29T01:17:22.808Z,52.57
2019-04-29T01:19:51.545Z,52.21
2019-04-29T01:22:20.345Z,51.64
2019-04-29T01:24:49.042Z,51.69
2019-04-29T01:27:22.417Z,52.90
2019-04-29T01:29:51.105Z,52.52
2019-04-29T01:32:19.892Z,52.39
2019-04-29T01:37:41.964Z,53.75
2019-04-29T01:40:21.606Z,53.31
2019-04-29T01:42:50.328Z,53.92
2019-04-29T01:45:19.010Z,53.39
2019-04-29T01:47:47.626Z,54.92
2019-04-29T01:50:16.348Z,55.44
2019-04-29T01:52:44.985Z,53.75
2019-04-29T01:55:13.798Z,55.45
2019-04-29T01:57:42.526Z,55.58
2019-04-29T02:00:12.645Z,57.83
2019-04-29T02:02:41.308Z,56.58
2019-04-29T02:05:10.126Z,56.94
2019-04-29T02:07:38.741Z,57.72
2019-04-29T02:10:14.993Z,59.30
2019-04-29T02:12:43.688Z,60.18
2019-04-29T02:15:12.478Z,57.58
2019-04-29T02:17:41.133Z,56.17
2019-04-29T02:20:10.020Z,55.54
2019-04-29T02:22:40.279Z,55.93
2019-04-29T02:25:26.679Z,55.23
2019-04-29T02:27:55.359Z,54.39
2019-04-29T02:30:44.818Z,53.61
2019-04-29T02:33:13.609Z,53.46
2019-04-29T02:35:42.299Z,52.83
2019-04-29T02:38:24.456Z,53.14
2019-04-29T02:40:57.445Z,53.37
2019-04-29T02:43:27.773Z,53.00
2019-04-29T02:45:56.489Z,52.65
2019-04-29T02:48:30.013Z,52.76
2019-04-29T02:50:55.596Z,52.96
2019-04-29T02:53:24.326Z,52.97
2019-04-29T02:55:54.598Z,53.74
2019-04-29T02:58:27.541Z,53.30
2019-04-29T03:01:14.188Z,52.57
2019-04-29T03:03:50.439Z,52.84
2019-04-29T03:06:19.115Z,53.09
2019-04-29T03:08:47.832Z,53.55
2019-04-29T03:11:16.828Z,53.91
2019-04-29T03:13:45.639Z,55.24
2019-04-29T03:16:14.608Z,55.07
2019-04-29T03:18:44.931Z,56.40
2019-04-29T03:21:15.195Z,56.11
2019-04-29T03:23:44.049Z,55.34
2019-04-29T03:26:12.737Z,57.04
2019-04-29T03:28:41.458Z,58.27
2019-04-29T03:31:10.186Z,58.48
2019-04-29T03:33:38.877Z,57.35
2019-04-29T03:36:07.628Z,57.10
2019-04-29T03:38:36.376Z,55.95
2019-04-29T03:41:05.071Z,57.01
2019-04-29T03:43:33.693Z,58.21
2019-04-29T03:46:02.568Z,58.08
2019-04-29T03:48:31.314Z,56.83
2019-04-29T03:51:00.017Z,56.69
2019-04-29T03:53:28.928Z,54.93
2019-04-29T03:55:57.571Z,54.85
2019-04-29T03:58:26.260Z,54.21
2019-04-29T04:01:02.430Z,54.42
2019-04-29T04:03:41.577Z,54.14
2019-04-29T04:06:11.890Z,53.87
2019-04-29T04:09:06.116Z,54.08
2019-04-29T04:11:27.874Z,54.10
2019-04-29T04:13:56.559Z,55.12
2019-04-29T04:16:29.555Z,54.55
2019-04-29T04:19:08.723Z,54.90
2019-04-29T04:21:37.405Z,56.81
2019-04-29T04:24:06.098Z,56.66
2019-04-29T04:26:34.757Z,56.74
2019-04-29T04:29:03.457Z,58.21
2019-04-29T04:31:32.137Z,58.17
2019-04-29T04:34:00.793Z,56.84
2019-04-29T04:36:29.470Z,58.16
2019-04-29T04:38:58.161Z,58.02
2019-04-29T04:41:26.887Z,57.81
2019-04-29T04:43:55.562Z,58.47
2019-04-29T04:46:24.258Z,58.74
2019-04-29T04:48:53.020Z,58.72
2019-04-29T04:51:21.703Z,58.59
2019-04-29T04:53:50.392Z,57.79
2019-04-29T04:56:19.125Z,57.82
2019-04-29T04:58:47.818Z,57.33
2019-04-29T05:01:16.507Z,57.16
2019-04-29T05:03:45.153Z,57.53
2019-04-29T05:06:13.853Z,57.62
2019-04-29T05:08:42.538Z,57.35
2019-04-29T05:11:11.269Z,58.34
2019-04-29T05:13:39.959Z,56.39
2019-04-29T05:16:08.652Z,55.32
2019-04-29T05:18:37.379Z,54.86
2019-04-29T05:21:06.216Z,55.66
2019-04-29T05:23:34.916Z,56.27
2019-04-29T05:26:03.648Z,54.45
2019-04-29T05:28:32.261Z,54.49
2019-04-29T05:31:00.959Z,54.59
2019-04-29T05:33:29.690Z,55.32
2019-04-29T05:36:01.873Z,55.54
2019-04-29T05:38:31.933Z,54.12
2019-04-29T05:41:00.654Z,54.38
2019-04-29T05:43:42.798Z,53.49
2019-04-29T05:46:17.469Z,52.84
2019-04-29T05:48:46.654Z,52.37
2019-04-29T05:51:16.912Z,53.62
2019-04-29T05:53:55.153Z,53.58
2019-04-29T05:56:23.533Z,52.84
2019-04-29T05:58:52.161Z,53.00
2019-04-29T06:01:22.454Z,51.17
2019-04-29T06:03:51.075Z,50.54
2019-04-29T06:06:19.710Z,51.08
2019-04-29T06:08:48.425Z,50.71
2019-04-29T06:11:17.115Z,50.65
2019-04-29T06:13:45.729Z,51.18
2019-04-29T06:16:15.826Z,50.08
2019-04-29T06:18:45.018Z,51.44
2019-04-29T06:21:13.633Z,53.74
2019-04-29T06:23:42.298Z,52.48
2019-04-29T06:26:11.041Z,50.66
2019-04-29T06:28:39.740Z,51.35
2019-04-29T06:31:08.470Z,51.72
2019-04-29T06:33:37.087Z,50.85
2019-04-29T06:36:05.869Z,50.29
2019-04-29T06:38:34.630Z,50.08
2019-04-29T06:41:05.495Z,49.43
2019-04-29T06:43:33.591Z,47.63
2019-04-29T06:46:02.306Z,46.92
2019-04-29T06:48:30.925Z,48.74
2019-04-29T06:50:59.622Z,48.90
2019-04-29T06:53:28.340Z,48.64
2019-04-29T06:55:57.036Z,46.88
2019-04-29T06:58:25.718Z,48.20
2019-04-29T07:00:55.759Z,49.29
2019-04-29T07:03:26.674Z,47.35
2019-04-29T07:05:55.453Z,47.91
2019-04-29T07:08:24.073Z,46.32
2019-04-29T07:10:55.967Z,45.97
2019-04-29T07:13:24.613Z,46.44
2019-04-29T07:15:53.308Z,46.70
2019-04-29T07:18:21.924Z,44.85
2019-04-29T07:20:50.596Z,46.93
2019-04-29T07:23:19.215Z,46.93
2019-04-29T07:25:47.892Z,45.25
2019-04-29T07:28:18.444Z,44.79
2019-04-29T07:31:00.913Z,45.03
2019-04-29T07:33:22.120Z,43.07
2019-04-29T07:35:49.517Z,45.17
2019-04-29T07:38:18.299Z,44.63
2019-04-29T07:40:46.989Z,43.70
2019-04-29T07:43:15.710Z,44.69
2019-04-29T07:45:49.367Z,44.74
2019-04-29T07:48:18.063Z,43.42
2019-04-29T07:50:46.775Z,42.27
2019-04-29T07:53:15.461Z,42.94
2019-04-29T07:55:44.149Z,44.90
2019-04-29T07:58:12.891Z,43.02
2019-04-29T08:00:44.650Z,42.62
2019-04-29T08:03:11.999Z,42.22
2019-04-29T08:05:41.222Z,42.71
2019-04-29T08:08:09.922Z,43.16
2019-04-29T08:10:53.734Z,45.33
2019-04-29T08:13:09.545Z,44.22
2019-04-29T08:15:41.667Z,43.56
2019-04-29T08:18:11.256Z,43.61
2019-04-29T08:20:39.809Z,43.93
2019-04-29T08:23:09.416Z,43.53
2019-04-29T08:25:38.038Z,42.69
2019-04-29T08:28:06.779Z,41.97
2019-04-29T08:30:35.398Z,41.15
2019-04-29T08:33:07.478Z,41.18
2019-04-29T08:35:36.806Z,40.47
2019-04-29T08:38:05.286Z,39.86
2019-04-29T08:40:34.414Z,40.77
2019-04-29T08:43:22.181Z,39.97
2019-04-29T08:45:55.329Z,40.14
2019-04-29T08:48:24.023Z,39.24
2019-04-29T08:50:52.737Z,39.27
2019-04-29T08:53:21.358Z,39.40
2019-04-29T08:55:50.053Z,41.22
2019-04-29T08:58:18.769Z,40.57
2019-04-29T09:00:47.461Z,39.63
2019-04-29T09:03:18.804Z,40.78
2019-04-29T09:06:03.946Z,41.18
2019-04-29T09:08:17.029Z,39.82
2019-04-29T09:10:45.704Z,40.47
2019-04-29T09:13:14.428Z,39.63
2019-04-29T09:15:43.125Z,40.60
2019-04-29T09:18:11.825Z,40.26
2019-04-29T09:20:40.561Z,39.99
2019-04-29T09:23:13.807Z,38.49
2019-04-29T09:25:44.066Z,39.76
2019-04-29T09:28:18.170Z,38.60
2019-04-29T09:30:44.935Z,38.27
2019-04-29T09:33:14.342Z,38.64
2019-04-29T09:35:43.137Z,38.61
2019-04-29T09:38:11.763Z,38.65
2019-04-29T09:40:45.761Z,37.22
2019-04-29T09:43:34.309Z,37.36
2019-04-29T09:46:04.570Z,36.62
2019-04-29T09:48:33.262Z,37.41
2019-04-29T09:51:01.985Z,36.10
2019-04-29T09:53:30.669Z,37.00
2019-04-29T09:55:59.362Z,37.36
2019-04-29T09:58:28.083Z,38.92
2019-04-29T10:00:58.634Z,36.78
2019-04-29T10:03:28.883Z,36.78
2019-04-29T10:06:05.066Z,36.71
2019-04-29T10:08:33.751Z,37.04
2019-04-29T10:11:02.487Z,36.43
2019-04-29T10:13:31.138Z,37.13
2019-04-29T10:16:02.149Z,36.49
2019-04-29T10:18:38.321Z,38.43
2019-04-29T10:21:11.759Z,36.62
2019-04-29T10:23:40.548Z,37.75
2019-04-29T10:26:09.266Z,36.79
2019-04-29T10:28:39.535Z,35.56
2019-04-29T10:31:08.732Z,38.47
2019-04-29T10:33:37.465Z,37.14
2019-04-29T10:36:06.959Z,35.78
2019-04-29T10:38:35.643Z,35.17
2019-04-29T10:41:11.754Z,34.73
2019-04-29T10:43:49.344Z,35.14
2019-04-29T10:46:35.639Z,33.64
2019-04-29T10:49:21.700Z,32.64
2019-04-29T10:51:50.434Z,34.43
2019-04-29T10:54:19.126Z,35.29
2019-04-29T10:56:47.819Z,31.63
2019-04-29T10:59:16.550Z,30.95
2019-04-29T11:02:01.710Z,32.26
2019-04-29T11:04:25.867Z,31.05
2019-04-29T11:06:54.481Z,35.19
2019-04-29T11:09:25.354Z,34.06
2019-04-29T11:11:54.090Z,32.73
2019-04-29T11:14:24.770Z,34.25
2019-04-29T11:16:53.201Z,31.39
2019-04-29T11:19:21.845Z,31.92
2019-04-29T11:21:50.537Z,31.25
2019-04-29T11:24:32.343Z,32.02
2019-04-29T11:27:11.656Z,31.71
2019-04-29T11:29:32.093Z,31.31
2019-04-29T11:32:02.458Z,31.39
2019-04-29T11:34:35.468Z,31.93
2019-04-29T11:37:04.362Z,31.72
2019-04-29T11:39:33.095Z,31.24
2019-04-29T11:42:01.892Z,29.36
2019-04-29T11:44:31.954Z,29.95
2019-04-29T11:47:00.799Z,30.71
2019-04-29T11:49:31.059Z,30.61
2019-04-29T11:52:09.129Z,29.32
2019-04-29T11:54:30.222Z,29.99
2019-04-29T11:56:59.031Z,29.54
2019-04-29T11:59:38.430Z,29.58
2019-04-29T12:02:24.266Z,29.64
2019-04-29T12:04:53.090Z,29.60
2019-04-29T12:07:21.988Z,29.28
2019-04-29T12:09:50.786Z,29.10
2019-04-29T12:12:20.816Z,31.74
2019-04-29T12:14:51.074Z,31.89
2019-04-29T12:17:21.337Z,30.37
2019-04-29T12:20:07.706Z,30.21
2019-04-29T12:22:47.725Z,30.85
2019-04-29T12:25:07.617Z,32.46
2019-04-29T12:27:36.346Z,31.13
2019-04-29T12:30:08.608Z,30.45
2019-04-29T12:32:44.801Z,30.03
2019-04-29T12:35:16.764Z,30.31
2019-04-29T12:37:47.061Z,30.91
2019-04-29T12:40:33.512Z,30.94
2019-04-29T12:43:11.380Z,30.76
2019-04-29T12:45:38.973Z,32.10
2019-04-29T12:48:07.669Z,30.00
2019-04-29T12:50:36.356Z,28.34
2019-04-29T12:53:05.876Z,30.32
2019-04-29T12:55:44.764Z,30.46
2019-04-29T12:58:06.556Z,28.44
2019-04-29T13:00:47.346Z,28.20
2019-04-29T13:03:16.843Z,29.41
2019-04-29T13:06:02.692Z,29.16
2019-04-29T13:08:32.988Z,29.07
2019-04-29T13:11:03.244Z,28.44
2019-04-29T13:13:31.980Z,28.60
2019-04-29T13:16:21.828Z,27.50
2019-04-29T13:18:53.922Z,28.21
2019-04-29T13:21:22.654Z,30.16
2019-04-29T13:23:59.531Z,28.94
2019-04-29T13:26:28.211Z,27.80
2019-04-29T13:29:00.251Z,28.29
2019-04-29T13:31:37.512Z,28.47
2019-04-29T13:33:54.742Z,27.75
2019-04-29T13:36:25.843Z,25.26
2019-04-29T13:38:53.778Z,27.52
2019-04-29T13:41:24.453Z,27.26
2019-04-29T13:43:54.728Z,26.77
2019-04-29T13:46:31.011Z,27.93
2019-04-29T13:49:17.628Z,28.62
2019-04-29T13:51:47.974Z,28.63
2019-04-29T13:54:16.667Z,26.97
2019-04-29T13:56:55.550Z,24.53
2019-04-29T13:59:17.375Z,25.46
2019-04-29T14:01:59.948Z,24.31
2019-04-29T14:04:28.815Z,25.46
2019-04-29T14:06:57.864Z,26.62
2019-04-29T14:09:26.659Z,25.82
2019-04-29T14:12:04.327Z,27.03
2019-04-29T14:14:28.231Z,27.41
2019-04-29T14:17:17.243Z,27.38
2019-04-29T14:19:41.023Z,26.18
2019-04-29T14:21:57.080Z,27.83
2019-04-29T14:24:25.775Z,25.05
2019-04-29T14:26:54.504Z,24.77
2019-04-29T14:29:28.004Z,25.67
2019-04-29T14:31:59.171Z,24.46
2019-04-29T14:34:34.868Z,23.92
2019-04-29T14:37:19.694Z,24.74
2019-04-29T14:39:36.999Z,23.96
2019-04-29T14:42:25.701Z,24.45
2019-04-29T14:44:54.167Z,25.73
2019-04-29T14:47:36.602Z,24.45
2019-04-29T14:50:10.576Z,24.46
2019-04-29T14:52:38.590Z,23.65
2019-04-29T14:55:07.562Z,25.69
2019-04-29T14:57:36.258Z,23.84
2019-04-29T15:00:07.916Z,23.88
2019-04-29T15:02:36.657Z,23.95
2019-04-29T15:05:11.703Z,24.59
2019-04-29T15:07:37.323Z,24.85
2019-04-29T15:10:08.463Z,24.27
2019-04-29T15:13:11.490Z,23.32
2019-04-29T15:15:29.753Z,23.62
2019-04-29T15:18:20.154Z,23.54
2019-04-29T15:20:48.227Z,23.77
2019-04-29T15:23:28.043Z,23.49
2019-04-29T15:25:47.338Z,24.19
2019-04-29T15:28:18.753Z,24.58
2019-04-29T15:30:46.478Z,24.04
2019-04-29T15:33:15.174Z,24.30
2019-04-29T15:35:43.914Z,24.25
2019-04-29T15:38:12.614Z,23.53
2019-04-29T15:40:43.095Z,22.33
2019-04-29T15:43:11.765Z,22.98
2019-04-29T15:45:40.792Z,22.17
2019-04-29T15:48:09.447Z,23.14
2019-04-29T15:50:39.074Z,22.95
2019-04-29T15:53:07.857Z,21.42
2019-04-29T15:55:39.470Z,21.21
2019-04-29T15:58:07.261Z,23.30
2019-04-29T16:00:39.800Z,22.94
2019-04-29T16:03:06.492Z,22.89
2019-04-29T16:05:56.020Z,22.57
2019-04-29T16:08:20.338Z,23.47
2019-04-29T16:11:06.688Z,23.34
2019-04-29T16:13:35.389Z,23.68
2019-04-29T16:16:04.093Z,23.72
2019-04-29T16:18:32.823Z,23.45
2019-04-29T16:21:01.444Z,23.38
2019-04-29T16:23:32.897Z,23.56
2019-04-29T16:26:00.584Z,23.93
2019-04-29T16:28:31.387Z,23.85
2019-04-29T16:31:05.257Z,24.83
2019-04-29T16:33:30.287Z,24.48
2019-04-29T16:36:04.819Z,28.97
2019-04-29T16:38:29.353Z,25.30
2019-04-29T16:41:19.405Z,24.48
2019-04-29T16:43:46.657Z,24.03
2019-04-29T16:46:16.925Z,24.65
2019-04-29T16:48:45.696Z,24.39
2019-04-29T16:51:16.642Z,25.95
2019-04-29T16:53:44.745Z,25.87
2019-04-29T16:56:16.336Z,25.14
2019-04-29T16:58:45.260Z,25.34
2019-04-29T17:01:13.961Z,25.36
2019-04-29T17:03:42.685Z,24.69
2019-04-29T17:06:11.305Z,25.42
2019-04-29T17:08:50.624Z,24.49
2019-04-29T17:11:17.479Z,24.82
2019-04-29T17:13:47.038Z,26.70
2019-04-29T17:16:17.139Z,27.78
2019-04-29T17:18:45.908Z,27.19
2019-04-29T17:21:14.893Z,26.38
2019-04-29T17:23:43.610Z,28.03
2019-04-29T17:26:12.358Z,30.40
2019-04-29T17:28:48.779Z,28.51
2019-04-29T17:31:25.458Z,29.98
2019-04-29T17:33:56.351Z,28.30
2019-04-29T17:36:25.860Z,30.40
2019-04-29T17:38:54.798Z,29.71
2019-04-29T17:41:23.509Z,29.44
2019-04-29T17:44:14.657Z,29.33
2019-04-29T17:46:55.783Z,31.48
2019-04-29T17:49:29.696Z,31.74
2019-04-29T17:52:02.916Z,32.16
2019-04-29T17:54:34.892Z,31.21
2019-04-29T17:57:25.118Z,31.36
2019-04-29T17:59:37.096Z,31.45
2019-04-29T18:02:10.390Z,32.60
2019-04-29T18:04:45.576Z,34.50
2019-04-29T18:07:18.445Z,32.01
2019-04-29T18:09:48.789Z,35.42
2019-04-29T18:12:24.905Z,33.72
2019-04-29T18:14:55.070Z,32.47
2019-04-29T18:17:30.347Z,33.18
2019-04-29T18:20:00.218Z,34.23
2019-04-29T18:22:34.819Z,33.49
2019-04-29T18:25:10.840Z,32.44
2019-04-29T18:27:41.113Z,33.33
2019-04-29T18:30:12.220Z,33.84
2019-04-29T18:32:46.380Z,33.61
2019-04-29T18:35:11.095Z,32.75
2019-04-29T18:37:39.790Z,33.40
2019-04-29T18:40:09.058Z,33.02
2019-04-29T18:42:38.362Z,33.87
2019-04-29T18:45:08.296Z,34.38
2019-04-29T18:47:38.854Z,35.56
2019-04-29T18:50:07.968Z,35.41
2019-04-29T18:52:38.109Z,34.97
2019-04-29T18:55:07.052Z,34.82
2019-04-29T18:57:35.898Z,36.18
2019-04-29T19:00:11.694Z,35.86
2019-04-29T19:02:45.371Z,37.21
2019-04-29T19:05:17.263Z,37.89
2019-04-29T19:07:54.980Z,39.55
2019-04-29T19:10:18.403Z,38.26
2019-04-29T19:12:57.518Z,37.72
2019-04-29T19:15:17.894Z,38.91
2019-04-29T19:17:58.716Z,39.36
2019-04-29T19:20:18.656Z,39.04
2019-04-29T19:22:47.482Z,38.90
2019-04-29T19:25:16.173Z,38.22
2019-04-29T19:27:45.444Z,37.75
2019-04-29T19:30:20.859Z,38.81
2019-04-29T19:32:46.886Z,37.75
2019-04-29T19:35:16.963Z,38.44
2019-04-29T19:37:45.812Z,38.81
2019-04-29T19:40:15.066Z,39.09
2019-04-29T19:42:46.886Z,39.53
2019-04-29T19:45:15.492Z,38.78
2019-04-29T19:47:47.423Z,38.92
2019-04-29T19:50:18.271Z,38.37
2019-04-29T19:52:45.631Z,39.57
2019-04-29T19:55:14.258Z,39.64
2019-04-29T19:57:48.082Z,38.92
2019-04-29T20:00:14.442Z,40.98
2019-04-29T20:02:46.458Z,39.38
2019-04-29T20:05:23.974Z,39.04
2019-04-29T20:07:50.861Z,38.90
2019-04-29T20:10:20.887Z,38.62
2019-04-29T20:12:53.313Z,38.68
2019-04-29T20:15:20.904Z,38.18
2019-04-29T20:17:57.561Z,39.03
2019-04-29T20:23:00.655Z,40.37
2019-04-29T20:25:35.672Z,39.89
2019-04-29T20:28:06.051Z,40.94
2019-04-29T20:30:30.337Z,41.17
2019-04-29T20:33:01.652Z,42.89
2019-04-29T20:35:29.704Z,43.76
2019-04-29T20:38:00.199Z,42.54
2019-04-29T20:40:35.228Z,43.99
2019-04-29T20:42:59.656Z,43.83
2019-04-29T20:45:29.081Z,43.10
2019-04-29T20:47:58.063Z,41.99
2019-04-29T20:50:27.033Z,41.54
2019-04-29T20:53:12.627Z,40.55
2019-04-29T20:55:41.501Z,41.06
2019-04-29T20:58:10.333Z,40.12
2019-04-29T21:00:40.128Z,39.89
2019-04-29T21:03:11.189Z,41.10
2019-04-29T21:05:47.416Z,40.83
2019-04-29T21:08:15.106Z,39.67
2019-04-29T21:10:43.085Z,40.35
2019-04-29T21:13:16.173Z,39.77
2019-04-29T21:15:55.903Z,42.46
2019-04-29T21:18:25.090Z,41.53
2019-04-29T21:20:55.186Z,41.28
2019-04-29T21:23:23.864Z,42.58
2019-04-29T21:25:52.559Z,44.23
2019-04-29T21:28:21.276Z,43.48
2019-04-29T21:30:50.019Z,42.90
2019-04-29T21:33:21.428Z,42.43
2019-04-29T21:35:57.641Z,41.81
2019-04-29T21:38:28.479Z,42.55
2019-04-29T21:41:04.413Z,43.52
2019-04-29T21:43:35.450Z,41.54
2019-04-29T21:46:05.745Z,40.17
2019-04-29T21:48:36.878Z,40.46
2019-04-29T21:51:06.801Z,40.12
2019-04-29T21:53:36.501Z,40.41
2019-04-29T21:56:09.111Z,40.00
2019-04-29T21:58:36.185Z,40.09
2019-04-29T22:01:05.489Z,39.39
2019-04-29T22:03:34.187Z,39.25
2019-04-29T22:06:02.980Z,39.31
2019-04-29T22:08:31.807Z,40.44
2019-04-29T22:11:04.901Z,39.86
2019-04-29T22:13:35.671Z,40.79
2019-04-29T22:16:01.559Z,40.77
2019-04-29T22:18:30.457Z,39.46
2019-04-29T22:20:59.194Z,39.31
2019-04-29T22:23:27.894Z,41.45
2019-04-29T22:25:56.749Z,39.90
2019-04-29T22:28:25.484Z,40.30
2019-04-29T22:30:54.902Z,40.37
2019-04-29T22:33:25.278Z,40.02
2019-04-29T22:35:55.464Z,40.48
2019-04-29T22:38:24.951Z,40.03
2019-04-29T22:40:55.190Z,40.14
2019-04-29T22:43:31.156Z,40.15
2019-04-29T22:45:59.863Z,40.42
2019-04-29T22:48:28.559Z,39.85
2019-04-29T22:50:57.283Z,40.56
2019-04-29T22:53:25.971Z,41.17
2019-04-29T22:55:56.574Z,41.38
2019-04-29T22:58:25.048Z,40.53
2019-04-29T23:00:53.744Z,39.83
2019-04-29T23:03:22.443Z,40.46
2019-04-29T23:05:51.090Z,40.20
2019-04-29T23:08:19.723Z,39.63
2019-04-29T23:10:48.418Z,39.85
2019-04-29T23:13:17.154Z,40.18
2019-04-29T23:15:45.852Z,40.45
2019-04-29T23:18:24.326Z,42.48
2019-04-29T23:20:52.372Z,40.92
2019-04-29T23:23:22.656Z,40.22
2019-04-29T23:25:52.900Z,40.35
2019-04-29T23:28:22.477Z,40.63
2019-04-29T23:30:53.388Z,39.92
2019-04-29T23:33:24.001Z,38.11
2019-04-29T23:35:52.543Z,38.68
2019-04-29T23:38:21.242Z,38.10
2019-04-29T23:40:54.592Z,37.97
2019-04-29T23:43:27.037Z,39.48
2019-04-29T23:45:51.904Z,38.91
2019-04-29T23:48:23.764Z,40.92
2019-04-29T23:50:54.670Z,38.96
2019-04-29T23:53:25.153Z,37.32
2019-04-29T23:55:52.443Z,39.19
2019-04-29T23:58:22.746Z,38.61
